Enfidha, Tunisia
Current Conditions -  °F | °C
As of 8:30 AM on Friday 24 Oct 2014 (Local Time) from DTNH Reporting Station
Clear Clear  
Wind Chill: 68°   Ceiling: Unl
Heat Index: 68°   Visibility: 0.62mi
Dew Point: 55°   Wind: 14mph
Humidity: 64%   Direction: 270°W
Pressure: 29.91"   Gusts: NA
Location:  36.14°N, 10.38°E
Report Text: DTNH 240730Z AUTO 27012KT 1000NDV R27/0300VP2000D NCD 20/13 Q1013
Loading
Personal Weather Stations






























Interactive Weather Map
Tropical Storm Tracking
New forecast layout! Learn more

10-Day Weather Forecast

Advertisements
Track Severe Weather on mobile